createdAt,value
2018-06-27T00:01:23.271Z,100879.21
2018-06-27T00:03:54.052Z,100877.23
2018-06-27T00:06:24.968Z,100887.58
2018-06-27T00:08:56.262Z,100879.94
2018-06-27T00:11:26.902Z,100879.28
2018-06-27T00:13:58.242Z,100875.64
2018-06-27T00:16:28.864Z,100878.13
2018-06-27T00:18:59.275Z,100871.17
2018-06-27T00:21:29.945Z,100872.36
2018-06-27T00:24:01.143Z,100875.67
2018-06-27T00:26:34.738Z,100875.16
2018-06-27T00:29:09.564Z,100873.70
2018-06-27T00:31:39.460Z,100871.72
2018-06-27T00:34:09.494Z,100872.06
2018-06-27T00:36:39.502Z,100874.72
2018-06-27T00:39:10.858Z,100864.89
2018-06-27T00:41:40.833Z,100865.06
2018-06-27T00:44:10.940Z,100863.53
2018-06-27T00:46:40.772Z,100871.03
2018-06-27T00:49:11.341Z,100873.36
2018-06-27T00:51:41.274Z,100869.84
2018-06-27T00:54:12.328Z,100865.38
2018-06-27T00:56:43.089Z,100865.38
2018-06-27T00:59:13.943Z,100875.50
2018-06-27T01:01:44.890Z,100879.33
2018-06-27T01:04:15.232Z,100880.66
2018-06-27T01:06:45.888Z,100878.98
2018-06-27T01:09:18.212Z,100882.63
2018-06-27T01:11:48.178Z,100881.30
2018-06-27T01:14:18.967Z,100876.45
2018-06-27T01:16:49.932Z,100873.45
2018-06-27T01:19:20.976Z,100880.27
2018-06-27T01:21:52.131Z,100872.77
2018-06-27T01:24:23.193Z,100881.40
2018-06-27T01:26:53.855Z,100875.39
2018-06-27T01:29:25.331Z,100879.89
2018-06-27T01:31:55.362Z,100876.55
2018-06-27T01:34:25.985Z,100884.97
2018-06-27T01:36:56.911Z,100889.77
2018-06-27T01:39:28.286Z,100890.25
2018-06-27T01:41:58.947Z,100892.73
2018-06-27T01:44:29.984Z,100888.74
2018-06-27T01:47:00.933Z,100898.36
2018-06-27T01:49:31.946Z,100899.34
2018-06-27T01:52:02.914Z,100899.82
2018-06-27T01:54:33.882Z,100903.29
2018-06-27T01:57:05.291Z,100902.09
2018-06-27T01:59:36.023Z,100899.59
2018-06-27T02:02:06.917Z,100897.84
2018-06-27T02:04:38.340Z,100901.31
2018-06-27T02:07:10.586Z,100896.42
2018-06-27T02:09:40.537Z,100902.89
2018-06-27T02:12:11.109Z,100901.36
2018-06-27T02:14:55.280Z,100907.66
2018-06-27T02:17:25.185Z,100900.83
2018-06-27T02:19:55.103Z,100909.28
2018-06-27T02:22:24.974Z,100915.93
2018-06-27T02:24:54.878Z,100918.59
2018-06-27T02:27:24.742Z,100911.42
2018-06-27T02:29:54.693Z,100917.72
2018-06-27T02:32:24.595Z,100919.18
2018-06-27T02:34:54.622Z,100915.36
2018-06-27T02:37:24.520Z,100910.33
2018-06-27T02:39:54.535Z,100914.11
2018-06-27T02:42:24.457Z,100902.55
2018-06-27T02:44:54.445Z,100909.33
2018-06-27T02:47:24.290Z,100900.26
2018-06-27T02:49:54.988Z,100908.47
2018-06-27T02:52:24.981Z,100912.40
2018-06-27T02:54:54.937Z,100913.38
2018-06-27T02:57:26.828Z,100906.61
2018-06-27T02:59:57.566Z,100908.92
2018-06-27T03:02:28.157Z,100907.59
2018-06-27T03:04:59.240Z,100905.28
2018-06-27T03:07:29.977Z,100900.78
2018-06-27T03:10:00.927Z,100900.09
2018-06-27T03:12:32.282Z,100903.73
2018-06-27T03:15:02.841Z,100907.38
2018-06-27T03:17:33.110Z,100911.36
2018-06-27T03:20:04.059Z,100915.35
2018-06-27T03:22:34.053Z,100914.02
2018-06-27T03:25:05.415Z,100916.67
2018-06-27T03:27:35.958Z,100915.00
2018-06-27T03:30:07.599Z,100913.84
2018-06-27T03:32:38.541Z,100916.97
2018-06-27T03:35:09.210Z,100929.27
2018-06-27T03:37:39.857Z,100929.27
2018-06-27T03:40:11.335Z,100931.80
2018-06-27T03:42:41.886Z,100934.94
2018-06-27T03:45:12.273Z,100937.12
2018-06-27T03:47:42.961Z,100938.28
2018-06-27T03:50:14.021Z,100937.30
2018-06-27T03:52:48.360Z,100931.00
2018-06-27T03:55:18.234Z,100926.04
2018-06-27T03:57:48.670Z,100921.06
2018-06-27T04:00:18.615Z,100925.27
2018-06-27T04:02:49.207Z,100928.46
2018-06-27T04:05:20.003Z,100929.50
2018-06-27T04:07:50.911Z,100936.84
2018-06-27T04:10:28.039Z,100938.52
2018-06-27T04:12:58.097Z,100932.08
2018-06-27T04:15:33.067Z,100930.64
2018-06-27T04:18:02.900Z,100941.33
2018-06-27T04:20:32.825Z,100943.06
2018-06-27T04:23:14.411Z,100951.31
2018-06-27T04:25:44.588Z,100945.41
2018-06-27T04:28:14.707Z,100941.30
2018-06-27T04:30:44.633Z,100942.55
2018-06-27T04:33:14.450Z,100938.73
2018-06-27T04:35:44.937Z,100943.77
2018-06-27T04:38:14.753Z,100942.17
2018-06-27T04:40:44.772Z,100937.32
2018-06-27T04:43:14.788Z,100939.20
2018-06-27T04:45:44.893Z,100936.94
2018-06-27T04:48:14.717Z,100935.02
2018-06-27T04:50:44.699Z,100946.27
2018-06-27T04:53:14.662Z,100948.97
2018-06-27T04:55:44.649Z,100955.19
2018-06-27T04:58:14.997Z,100962.58
2018-06-27T05:00:44.922Z,100963.95
2018-06-27T05:03:14.768Z,100967.12
2018-06-27T05:05:45.203Z,100971.11
2018-06-27T05:08:15.047Z,100968.66
2018-06-27T05:10:44.932Z,100966.23
2018-06-27T05:13:15.197Z,100975.59
2018-06-27T05:15:45.985Z,100971.34
2018-06-27T05:18:16.107Z,100971.50
2018-06-27T05:20:46.895Z,100963.61
2018-06-27T05:23:18.276Z,100971.64
2018-06-27T05:25:49.035Z,100975.13
2018-06-27T05:28:20.009Z,100971.16
2018-06-27T05:30:51.356Z,100976.91
2018-06-27T05:33:22.244Z,100979.80
2018-06-27T05:35:52.955Z,100977.77
2018-06-27T05:38:23.965Z,100987.64
2018-06-27T05:40:54.954Z,100980.31
2018-06-27T05:43:25.977Z,100972.69
2018-06-27T05:45:57.257Z,100983.88
2018-06-27T05:48:27.159Z,100984.56
2018-06-27T05:50:57.893Z,100986.26
2018-06-27T05:53:29.284Z,100980.41
2018-06-27T05:55:59.938Z,100977.00
2018-06-27T05:58:31.281Z,100981.63
2018-06-27T06:01:01.998Z,100985.77
2018-06-27T06:03:33.276Z,100985.52
2018-06-27T06:06:04.026Z,100990.66
2018-06-27T06:08:34.984Z,100988.73
2018-06-27T06:11:04.846Z,100995.33
2018-06-27T06:13:36.291Z,100997.69
2018-06-27T06:16:07.090Z,100991.83
2018-06-27T06:18:38.456Z,101001.03
2018-06-27T06:21:09.167Z,101000.52
2018-06-27T06:23:39.094Z,100991.67
2018-06-27T06:26:09.943Z,100998.84
2018-06-27T06:28:41.270Z,100985.13
2018-06-27T06:31:12.134Z,100990.47
2018-06-27T06:33:43.715Z,100989.13
2018-06-27T06:36:14.310Z,100990.66
2018-06-27T06:38:44.971Z,100988.64
2018-06-27T06:41:15.941Z,100991.64
2018-06-27T06:43:47.467Z,100985.11
2018-06-27T06:46:18.014Z,100988.77
2018-06-27T06:48:49.436Z,100991.41
2018-06-27T06:51:20.050Z,100994.55
2018-06-27T06:53:51.049Z,100995.55
2018-06-27T06:56:22.082Z,100998.37
2018-06-27T06:58:52.933Z,101000.97
2018-06-27T07:01:24.216Z,101006.11
2018-06-27T07:03:55.738Z,101002.70
2018-06-27T07:06:25.567Z,100997.13
2018-06-27T07:08:56.129Z,101007.78
2018-06-27T07:11:26.942Z,101014.27
2018-06-27T07:13:58.226Z,101010.00
2018-06-27T07:16:29.315Z,101016.48
2018-06-27T07:19:00.050Z,101017.30
2018-06-27T07:21:31.353Z,101019.07
2018-06-27T07:24:02.040Z,101032.72
2018-06-27T07:26:33.062Z,101019.23
2018-06-27T07:29:04.532Z,101015.58
2018-06-27T07:31:34.411Z,101010.41
2018-06-27T07:34:05.090Z,101010.98
2018-06-27T07:36:36.241Z,101019.16
2018-06-27T07:39:11.041Z,101013.59
2018-06-27T07:41:40.985Z,101021.47
2018-06-27T07:44:10.832Z,101020.45
2018-06-27T07:46:41.855Z,101024.16
2018-06-27T07:49:11.942Z,101031.31
2018-06-27T07:51:42.597Z,101031.16
2018-06-27T07:54:13.217Z,101030.08
2018-06-27T07:56:44.066Z,101035.62
2018-06-27T07:59:15.143Z,101036.48
2018-06-27T08:01:45.994Z,101043.24
2018-06-27T08:04:17.292Z,101039.83
2018-06-27T08:06:48.299Z,100915.95
2018-06-27T08:09:18.971Z,101032.77
2018-06-27T08:11:49.988Z,101037.62
2018-06-27T08:14:21.167Z,101035.20
2018-06-27T08:16:52.307Z,101039.44
2018-06-27T08:19:23.038Z,101035.04
2018-06-27T08:21:53.991Z,101032.01
2018-06-27T08:24:23.887Z,101022.13
2018-06-27T08:26:55.372Z,101031.73
2018-06-27T08:29:26.047Z,101022.31
2018-06-27T08:31:56.677Z,101030.02
2018-06-27T08:34:27.322Z,101025.22
2018-06-27T08:36:57.995Z,101031.91
2018-06-27T08:39:28.963Z,101028.73
2018-06-27T08:42:00.187Z,101027.37
2018-06-27T08:44:31.167Z,101030.53
2018-06-27T08:47:01.960Z,101013.03
2018-06-27T08:49:32.958Z,101023.35
2018-06-27T08:52:03.965Z,101021.18
2018-06-27T08:54:38.954Z,101025.79
2018-06-27T08:57:08.971Z,101026.04
2018-06-27T08:59:39.009Z,101028.91
2018-06-27T09:02:09.035Z,101021.88
2018-06-27T09:04:39.095Z,101025.45
2018-06-27T09:07:09.702Z,101023.59
2018-06-27T09:09:40.935Z,101023.55
2018-06-27T09:12:10.930Z,101012.55
2018-06-27T09:14:41.999Z,101020.46
2018-06-27T09:17:13.034Z,101019.27
2018-06-27T09:19:44.046Z,101013.09
2018-06-27T09:22:15.384Z,101008.73
2018-06-27T09:24:46.014Z,101008.07
2018-06-27T09:27:15.872Z,101006.89
2018-06-27T09:29:47.275Z,101003.07
2018-06-27T09:32:17.841Z,100997.34
2018-06-27T09:34:49.232Z,100992.11
2018-06-27T09:37:19.882Z,100992.77
2018-06-27T09:39:51.303Z,100998.80
2018-06-27T09:42:21.942Z,100992.41
2018-06-27T09:44:53.030Z,101002.84
2018-06-27T09:47:23.868Z,101000.03
2018-06-27T09:49:54.278Z,100995.73
2018-06-27T09:52:24.903Z,101004.71
2018-06-27T09:54:57.230Z,100999.88
2018-06-27T09:57:27.214Z,100990.25
2018-06-27T09:59:58.830Z,100991.94
2018-06-27T10:02:29.572Z,100997.33
2018-06-27T10:05:00.123Z,100994.72
2018-06-27T10:07:30.892Z,100987.23
2018-06-27T10:10:01.895Z,100990.75
2018-06-27T10:12:32.545Z,100982.13
2018-06-27T10:15:03.234Z,100974.25
2018-06-27T10:17:34.011Z,100979.12
2018-06-27T10:20:05.111Z,100974.17
2018-06-27T10:22:35.925Z,100968.22
2018-06-27T10:25:06.160Z,100977.49
2018-06-27T10:27:36.933Z,100971.34
2018-06-27T10:30:08.145Z,100971.37
2018-06-27T10:32:39.041Z,100967.70
2018-06-27T10:35:10.157Z,100967.91
2018-06-27T10:37:40.148Z,100968.84
2018-06-27T10:40:11.070Z,100963.95
2018-06-27T10:42:41.872Z,100967.84
2018-06-27T10:45:13.401Z,100959.06
2018-06-27T10:47:43.989Z,100953.33
2018-06-27T10:50:13.898Z,100951.52
2018-06-27T10:52:45.291Z,100953.25
2018-06-27T10:55:19.974Z,100952.16
2018-06-27T10:57:50.104Z,100952.09
2018-06-27T11:00:20.074Z,100952.92
2018-06-27T11:02:49.941Z,100956.67
2018-06-27T11:05:19.954Z,100948.68
2018-06-27T11:07:50.693Z,100947.66
2018-06-27T11:10:21.410Z,100953.16
2018-06-27T11:12:52.018Z,100947.55
2018-06-27T11:15:22.955Z,100945.17
2018-06-27T11:17:54.102Z,100944.14
2018-06-27T11:20:25.026Z,100946.76
2018-06-27T11:22:56.066Z,100945.94
2018-06-27T11:25:27.226Z,100942.09
2018-06-27T11:27:57.967Z,100941.25
2018-06-27T11:30:28.978Z,100934.94
2018-06-27T11:32:59.888Z,100923.20
2018-06-27T11:35:31.346Z,100930.64
2018-06-27T11:38:02.001Z,100922.39
2018-06-27T11:40:33.157Z,100925.89
2018-06-27T11:43:04.030Z,100926.52
2018-06-27T11:45:35.051Z,100926.32
2018-06-27T11:48:06.138Z,100923.92
2018-06-27T11:50:37.116Z,100920.53
2018-06-27T11:53:07.934Z,100925.09
2018-06-27T11:55:38.930Z,100928.48
2018-06-27T11:58:10.379Z,100923.72
2018-06-27T12:00:42.066Z,100904.26
2018-06-27T12:03:12.003Z,100915.46
2018-06-27T12:05:45.932Z,100916.00
2018-06-27T12:08:16.043Z,100914.29
2018-06-27T12:10:46.046Z,100915.75
2018-06-27T12:13:16.571Z,100915.01
2018-06-27T12:15:47.070Z,100907.94
2018-06-27T12:18:17.020Z,100907.33
2018-06-27T12:20:47.992Z,100902.73
2018-06-27T12:23:19.267Z,100905.31
2018-06-27T12:25:49.978Z,100909.23
2018-06-27T12:28:21.019Z,100910.12
2018-06-27T12:30:52.154Z,100904.31
2018-06-27T12:33:22.964Z,100905.13
2018-06-27T12:35:54.049Z,100908.30
2018-06-27T12:38:24.934Z,100903.80
2018-06-27T12:40:56.077Z,100907.09
2018-06-27T12:43:27.024Z,100908.04
2018-06-27T12:45:58.225Z,100905.84
2018-06-27T12:48:29.042Z,100909.22
2018-06-27T12:50:58.915Z,100904.89
2018-06-27T12:53:30.398Z,100906.58
2018-06-27T12:56:01.111Z,100908.94
2018-06-27T12:58:32.262Z,100907.39
2018-06-27T13:01:02.938Z,100898.52
2018-06-27T13:03:34.340Z,100900.04
2018-06-27T13:06:05.038Z,100897.39
2018-06-27T13:08:35.899Z,100899.81
2018-06-27T13:11:07.350Z,100901.01
2018-06-27T13:13:38.013Z,100899.10
2018-06-27T13:16:08.996Z,100904.55
2018-06-27T13:18:40.038Z,100900.83
2018-06-27T13:21:11.016Z,100898.95
2018-06-27T13:23:41.965Z,100903.78
2018-06-27T13:26:13.204Z,100899.59
2018-06-27T13:28:43.975Z,100901.13
2018-06-27T13:31:14.535Z,100894.59
2018-06-27T13:33:45.106Z,100890.61
2018-06-27T13:36:15.973Z,100892.58
2018-06-27T13:38:47.011Z,100893.55
2018-06-27T13:41:17.902Z,100885.66
2018-06-27T13:43:48.546Z,100888.09
2018-06-27T13:46:19.258Z,100885.11
2018-06-27T13:48:49.939Z,100884.20
2018-06-27T13:51:21.343Z,100884.78
2018-06-27T13:53:52.034Z,100886.52
2018-06-27T13:56:21.955Z,100889.48
2018-06-27T13:58:52.921Z,100876.78
2018-06-27T14:01:24.010Z,100878.62
2018-06-27T14:03:55.010Z,100886.73
2018-06-27T14:06:26.067Z,100883.36
2018-06-27T14:08:56.966Z,100882.68
2018-06-27T14:11:28.054Z,100879.36
2018-06-27T14:13:58.890Z,100882.75
2018-06-27T14:16:29.992Z,100878.37
2018-06-27T14:19:01.003Z,100877.63
2018-06-27T14:21:32.139Z,100877.70
2018-06-27T14:24:02.144Z,100873.52
2018-06-27T14:26:33.062Z,100869.47
2018-06-27T14:29:04.040Z,100872.30
2018-06-27T14:31:34.777Z,100873.33
2018-06-27T14:34:05.491Z,100879.30
2018-06-27T14:36:36.191Z,100877.33
2018-06-27T14:39:09.482Z,100877.33
2018-06-27T14:41:40.183Z,100876.78
2018-06-27T14:44:10.734Z,100882.00
2018-06-27T14:46:40.725Z,100878.49
2018-06-27T14:49:11.289Z,100876.98
2018-06-27T14:51:41.230Z,100879.50
2018-06-27T14:54:12.039Z,100875.06
2018-06-27T14:56:43.037Z,100873.67
2018-06-27T14:59:14.160Z,100872.94
2018-06-27T15:01:44.073Z,100872.55
2018-06-27T15:04:14.938Z,100871.00
2018-06-27T15:06:46.033Z,100875.67
2018-06-27T15:09:16.953Z,100874.33
2018-06-27T15:11:48.035Z,100871.51
2018-06-27T15:14:19.102Z,100871.47
2018-06-27T15:16:50.171Z,100868.80
2018-06-27T15:19:20.972Z,100870.05
2018-06-27T15:21:52.019Z,100865.98
2018-06-27T15:24:22.967Z,100865.98
2018-06-27T15:26:54.007Z,100864.02
2018-06-27T15:29:24.929Z,100861.63
2018-06-27T15:31:55.601Z,100861.66
2018-06-27T15:34:26.187Z,100859.86
2018-06-27T15:36:56.206Z,100862.24
2018-06-27T15:39:27.123Z,100866.26
2018-06-27T15:41:58.100Z,100863.79
2018-06-27T15:44:28.986Z,100862.55
2018-06-27T15:46:59.972Z,100862.82
2018-06-27T15:49:31.019Z,100864.70
2018-06-27T15:52:02.091Z,100859.63
2018-06-27T15:54:33.778Z,100859.42
2018-06-27T15:57:04.534Z,100859.06
2018-06-27T15:59:35.183Z,100857.41
2018-06-27T16:02:06.086Z,100864.48
2018-06-27T16:04:37.050Z,100856.34
2018-06-27T16:07:07.991Z,100862.17
2018-06-27T16:09:39.423Z,100857.38
2018-06-27T16:12:10.184Z,100853.75
2018-06-27T16:14:41.053Z,100859.06
2018-06-27T16:17:12.211Z,100852.62
2018-06-27T16:19:43.155Z,100867.91
2018-06-27T16:22:14.094Z,100863.75
2018-06-27T16:24:45.117Z,100857.94
2018-06-27T16:27:15.985Z,100860.63
2018-06-27T16:29:47.073Z,100861.58
2018-06-27T16:32:18.137Z,100862.20
2018-06-27T16:34:49.214Z,100866.36
2018-06-27T16:37:20.114Z,100863.55
2018-06-27T16:39:50.883Z,100858.58
2018-06-27T16:42:22.263Z,100862.94
2018-06-27T16:44:53.029Z,100871.44
2018-06-27T16:47:23.953Z,100865.84
2018-06-27T16:49:55.292Z,100868.13
2018-06-27T16:52:26.028Z,100866.98
2018-06-27T16:54:56.962Z,100866.05
2018-06-27T16:57:27.993Z,100870.31
2018-06-27T16:59:58.944Z,100862.84
2018-06-27T17:02:29.895Z,100870.63
2018-06-27T17:05:01.245Z,100865.44
2018-06-27T17:07:31.969Z,100859.20
2018-06-27T17:10:03.002Z,100859.52
2018-06-27T17:12:34.046Z,100859.00
2018-06-27T17:15:05.013Z,100857.34
2018-06-27T17:17:36.058Z,100861.78
2018-06-27T17:20:07.271Z,100862.42
2018-06-27T17:22:37.948Z,100866.33
2018-06-27T17:25:09.334Z,100857.83
2018-06-27T17:27:40.017Z,100858.22
2018-06-27T17:30:10.922Z,100855.52
2018-06-27T17:32:41.975Z,100860.09
2018-06-27T17:35:13.071Z,100868.81
2018-06-27T17:37:44.102Z,100860.40
2018-06-27T17:40:14.965Z,100855.02
2018-06-27T17:42:44.930Z,100856.61
2018-06-27T17:45:15.917Z,100857.86
2018-06-27T17:47:47.357Z,100858.79
2018-06-27T17:50:17.982Z,100857.22
2018-06-27T17:52:48.974Z,100853.39
2018-06-27T17:55:20.328Z,100843.02
2018-06-27T17:57:51.011Z,100842.60
2018-06-27T18:00:21.979Z,100849.03
2018-06-27T18:02:52.910Z,100852.86
2018-06-27T18:05:24.247Z,100844.98
2018-06-27T18:07:55.009Z,100846.22
2018-06-27T18:10:25.964Z,100845.09
2018-06-27T18:12:57.099Z,100841.55
2018-06-27T18:15:27.965Z,100831.70
2018-06-27T18:17:59.157Z,100825.03
2018-06-27T18:20:29.019Z,100825.45
2018-06-27T18:22:58.901Z,100818.80
2018-06-27T18:25:30.254Z,100816.83
2018-06-27T18:28:00.995Z,100811.11
2018-06-27T18:30:32.027Z,100808.91
2018-06-27T18:33:03.018Z,100809.63
2018-06-27T18:35:34.438Z,100818.86
2018-06-27T18:44:39.140Z,100849.65
2018-06-27T18:47:09.035Z,100851.19
2018-06-27T18:49:38.822Z,100851.50
2018-06-27T18:52:08.926Z,100845.80
2018-06-27T18:54:38.780Z,100842.16
2018-06-27T18:57:08.717Z,100838.52
2018-06-27T18:59:38.584Z,100839.46
2018-06-27T19:02:08.702Z,100844.72
2018-06-27T19:04:38.564Z,100848.67
2018-06-27T19:07:08.576Z,100849.48
2018-06-27T19:09:38.458Z,100851.92
2018-06-27T19:12:08.701Z,100849.31
2018-06-27T19:14:38.528Z,100850.75
2018-06-27T19:17:08.760Z,100846.67
2018-06-27T19:19:38.824Z,100844.78
2018-06-27T19:22:08.795Z,100847.88
2018-06-27T19:24:38.743Z,100845.58
2018-06-27T19:27:08.602Z,100840.68
2018-06-27T19:29:38.482Z,100844.59
2018-06-27T19:32:08.543Z,100850.06
2018-06-27T19:34:38.516Z,100852.12
2018-06-27T19:37:09.764Z,100858.13
2018-06-27T19:39:39.820Z,100854.34
2018-06-27T19:42:09.790Z,100850.38
2018-06-27T19:44:39.636Z,100845.16
2018-06-27T19:47:09.586Z,100844.39
2018-06-27T19:49:39.425Z,100838.69
2018-06-27T19:52:09.548Z,100829.13
2018-06-27T19:54:39.441Z,100829.66
2018-06-27T19:57:09.552Z,100832.98
2018-06-27T19:59:39.449Z,100830.48
2018-06-27T20:02:09.637Z,100837.73
2018-06-27T20:04:39.979Z,100832.22
2018-06-27T20:07:09.883Z,100836.78
2018-06-27T20:09:39.784Z,100829.28
2018-06-27T20:12:09.902Z,100834.00
2018-06-27T20:14:39.828Z,100830.35
2018-06-27T20:17:09.932Z,100831.31
2018-06-27T20:19:39.817Z,100817.05
2018-06-27T20:22:09.968Z,100817.23
2018-06-27T20:24:40.065Z,100813.37
2018-06-27T20:27:09.957Z,100816.06
2018-06-27T20:29:39.824Z,100807.25
2018-06-27T20:32:10.102Z,100806.47
2018-06-27T20:34:39.952Z,100802.13
2018-06-27T20:37:09.800Z,100808.66
2018-06-27T20:39:40.008Z,100807.00
2018-06-27T20:42:09.854Z,100807.70
2018-06-27T20:44:39.770Z,100800.49
2018-06-27T20:47:09.670Z,100799.39
2018-06-27T20:49:39.523Z,100800.31
2018-06-27T20:52:09.550Z,100804.84
2018-06-27T20:54:39.451Z,100800.59
2018-06-27T20:57:09.498Z,100800.02
2018-06-27T20:59:39.521Z,100782.17
2018-06-27T21:02:09.613Z,100799.77
2018-06-27T21:04:39.861Z,100791.38
2018-06-27T21:07:09.861Z,100793.00
2018-06-27T21:09:39.801Z,100794.47
2018-06-27T21:12:09.672Z,100791.70
2018-06-27T21:14:41.718Z,100791.20
2018-06-27T21:17:11.771Z,100791.44
2018-06-27T21:19:41.696Z,100789.07
2018-06-27T21:22:11.530Z,100789.45
2018-06-27T21:24:41.565Z,100789.83
2018-06-27T21:27:11.385Z,100786.97
2018-06-27T21:29:41.573Z,100788.41
2018-06-27T21:32:11.439Z,100787.65
2018-06-27T21:34:41.522Z,100787.44
2018-06-27T21:37:11.429Z,100789.48
2018-06-27T21:39:41.446Z,100787.18
2018-06-27T21:42:11.409Z,100790.63
2018-06-27T21:44:41.469Z,100792.17
2018-06-27T21:47:11.513Z,100789.80
2018-06-27T21:49:41.538Z,100785.63
2018-06-27T21:52:11.478Z,100780.73
2018-06-27T21:54:41.440Z,100777.40
2018-06-27T21:57:11.467Z,100787.29
2018-06-27T21:59:41.508Z,100780.20
2018-06-27T22:02:11.536Z,100772.05
2018-06-27T22:04:41.478Z,100769.57
2018-06-27T22:07:11.388Z,100769.89
2018-06-27T22:09:41.492Z,100770.86
2018-06-27T22:12:11.868Z,100769.78
2018-06-27T22:14:42.360Z,100766.04
2018-06-27T22:17:12.637Z,100760.48
2018-06-27T22:19:43.037Z,100762.34
2018-06-27T22:22:13.211Z,100757.58
2018-06-27T22:24:43.691Z,100757.03
2018-06-27T22:27:13.599Z,100753.45
2018-06-27T22:29:43.582Z,100759.28
2018-06-27T22:32:13.433Z,100745.17
2018-06-27T22:34:43.446Z,100742.54
2018-06-27T22:37:13.397Z,100735.30
2018-06-27T22:39:43.386Z,100732.88
2018-06-27T22:42:13.732Z,100736.85
2018-06-27T22:44:43.717Z,100731.43
2018-06-27T22:47:13.637Z,100726.55
2018-06-27T22:49:43.621Z,100719.78
2018-06-27T22:52:13.571Z,100727.36
2018-06-27T22:54:43.568Z,100721.18
2018-06-27T22:57:13.850Z,100720.80
2018-06-27T22:59:43.809Z,100718.34
2018-06-27T23:02:13.677Z,100715.55
2018-06-27T23:04:43.634Z,100710.62
2018-06-27T23:07:14.494Z,100707.62
2018-06-27T23:09:45.085Z,100694.72
2018-06-27T23:12:15.918Z,100693.97
2018-06-27T23:14:47.536Z,100694.98
2018-06-27T23:17:18.466Z,100694.41
2018-06-27T23:19:49.172Z,100690.23
2018-06-27T23:22:30.206Z,100693.06
2018-06-27T23:25:00.735Z,100681.16
2018-06-27T23:27:30.721Z,100683.78
2018-06-27T23:30:01.061Z,100678.56
2018-06-27T23:32:30.922Z,100671.48
2018-06-27T23:35:00.790Z,100672.77
2018-06-27T23:37:30.797Z,100665.99
2018-06-27T23:40:00.664Z,100659.45
2018-06-27T23:42:31.263Z,100656.07
2018-06-27T23:45:01.449Z,100662.46
2018-06-27T23:47:32.328Z,100654.84
2018-06-27T23:50:02.737Z,100655.16
2018-06-27T23:52:32.719Z,100652.86
2018-06-27T23:55:03.269Z,100650.29
2018-06-27T23:57:33.949Z,100649.73
